createdAt,value
2023-05-18T00:00:07.859Z,35.34
2023-05-18T00:01:07.951Z,35.34
2023-05-18T00:02:08.045Z,35.32
2023-05-18T00:03:08.191Z,35.34
2023-05-18T00:04:08.183Z,35.36
2023-05-18T00:05:08.166Z,35.33
2023-05-18T00:06:08.200Z,35.33
2023-05-18T00:07:08.272Z,35.32
2023-05-18T00:08:09.804Z,35.33
2023-05-18T00:09:08.364Z,35.34
2023-05-18T00:10:08.422Z,35.34
2023-05-18T00:11:08.447Z,35.35
2023-05-18T00:12:08.489Z,35.33
2023-05-18T00:13:08.521Z,35.33
2023-05-18T00:14:08.573Z,35.36
2023-05-18T00:15:09.093Z,35.33
2023-05-18T00:16:08.720Z,35.35
2023-05-18T00:17:08.725Z,35.34
2023-05-18T00:18:08.890Z,35.31
2023-05-18T00:19:08.898Z,35.34
2023-05-18T00:20:08.810Z,35.34
2023-05-18T00:21:08.806Z,35.36
2023-05-18T00:22:08.819Z,35.35
2023-05-18T00:23:08.810Z,35.36
2023-05-18T00:24:08.843Z,35.34
2023-05-18T00:25:08.876Z,35.36
2023-05-18T00:26:08.916Z,35.35
2023-05-18T00:27:08.943Z,35.35
2023-05-18T00:28:08.963Z,35.33
2023-05-18T00:29:08.990Z,35.35
2023-05-18T00:30:09.049Z,35.38
2023-05-18T00:31:09.126Z,35.37
2023-05-18T00:32:09.158Z,35.36
2023-05-18T00:33:09.192Z,35.36
2023-05-18T00:34:09.192Z,35.35
2023-05-18T00:35:09.184Z,35.36
2023-05-18T00:36:09.197Z,35.34
2023-05-18T00:37:09.193Z,35.36
2023-05-18T00:38:09.246Z,35.37
2023-05-18T00:39:09.235Z,35.36
2023-05-18T00:40:09.550Z,35.35
2023-05-18T00:41:09.269Z,35.37
2023-05-18T00:42:09.294Z,35.36
2023-05-18T00:43:09.268Z,35.36
2023-05-18T00:44:09.293Z,35.35
2023-05-18T00:45:09.274Z,35.35
2023-05-18T00:46:09.362Z,35.37
2023-05-18T00:47:09.485Z,35.34
2023-05-18T00:48:09.349Z,35.36
2023-05-18T00:49:09.333Z,35.35
2023-05-18T00:50:09.324Z,35.36
2023-05-18T00:51:10.096Z,35.37
2023-05-18T00:52:09.393Z,35.36
2023-05-18T00:53:09.412Z,35.35
2023-05-18T00:54:09.441Z,35.35
2023-05-18T00:55:09.440Z,35.34
2023-05-18T00:56:09.436Z,35.37
2023-05-18T00:57:09.413Z,35.36
2023-05-18T00:58:09.431Z,35.35
2023-05-18T00:59:09.431Z,35.34
2023-05-18T01:00:09.415Z,35.36
2023-05-18T01:01:09.457Z,35.36
2023-05-18T01:02:09.440Z,35.36
2023-05-18T01:03:09.505Z,35.35
2023-05-18T01:04:09.390Z,35.38
2023-05-18T01:05:09.547Z,35.37
2023-05-18T01:06:09.430Z,35.34
2023-05-18T01:07:09.388Z,35.39
2023-05-18T01:08:09.399Z,35.35
2023-05-18T01:09:09.433Z,35.35
2023-05-18T01:10:09.440Z,35.36
2023-05-18T01:11:09.521Z,35.37
2023-05-18T01:12:09.471Z,35.36
2023-05-18T01:13:09.475Z,35.38
2023-05-18T01:14:09.430Z,35.36
2023-05-18T01:15:09.576Z,35.37
2023-05-18T01:16:09.454Z,35.38
2023-05-18T01:17:09.533Z,35.37
2023-05-18T01:18:09.523Z,35.37
2023-05-18T01:19:09.532Z,35.35
2023-05-18T01:20:09.559Z,35.36
2023-05-18T01:21:09.537Z,35.36
2023-05-18T01:22:09.537Z,35.35
2023-05-18T01:23:09.548Z,35.36
2023-05-18T01:24:09.543Z,35.37
2023-05-18T01:25:09.623Z,35.37
2023-05-18T01:26:09.571Z,35.39
2023-05-18T01:27:09.563Z,35.37
2023-05-18T01:28:09.552Z,35.37
2023-05-18T01:29:09.613Z,35.37
2023-05-18T01:30:09.610Z,35.38
2023-05-18T01:31:09.602Z,35.36
2023-05-18T01:32:09.557Z,35.38
2023-05-18T01:33:09.628Z,35.36
2023-05-18T01:34:09.575Z,35.36
2023-05-18T01:35:09.559Z,35.38
2023-05-18T01:36:09.543Z,35.36
2023-05-18T01:37:09.563Z,35.38
2023-05-18T01:38:09.519Z,35.38
2023-05-18T01:39:09.535Z,35.37
2023-05-18T01:40:09.595Z,35.37
2023-05-18T01:41:09.528Z,35.37
2023-05-18T01:42:09.528Z,35.38
2023-05-18T01:43:09.547Z,35.38
2023-05-18T01:44:09.541Z,35.38
2023-05-18T01:45:09.566Z,35.37
2023-05-18T01:46:09.567Z,35.39
2023-05-18T01:47:09.535Z,35.36
2023-05-18T01:48:09.607Z,35.37
2023-05-18T01:49:09.596Z,35.38
2023-05-18T01:50:09.543Z,35.37
2023-05-18T01:51:09.547Z,35.38
2023-05-18T01:52:09.558Z,35.37
2023-05-18T01:53:09.561Z,35.38
2023-05-18T01:54:09.557Z,35.41
2023-05-18T01:55:09.516Z,35.38
2023-05-18T01:56:09.489Z,35.38
2023-05-18T01:57:09.669Z,35.37
2023-05-18T01:58:09.542Z,35.40
2023-05-18T01:59:09.509Z,35.39
2023-05-18T02:00:09.578Z,35.37
2023-05-18T02:01:09.533Z,35.39
2023-05-18T02:02:09.530Z,35.37
2023-05-18T02:03:09.571Z,35.39
2023-05-18T02:04:09.766Z,35.38
2023-05-18T02:05:09.605Z,35.41
2023-05-18T02:06:09.505Z,35.39
2023-05-18T02:07:09.467Z,35.39
2023-05-18T02:08:09.473Z,35.38
2023-05-18T02:09:09.469Z,35.40
2023-05-18T02:10:09.605Z,35.40
2023-05-18T02:11:09.487Z,35.39
2023-05-18T02:12:09.490Z,35.41
2023-05-18T02:13:09.531Z,35.42
2023-05-18T02:14:09.506Z,35.40
2023-05-18T02:15:09.622Z,35.41
2023-05-18T02:16:09.604Z,35.41
2023-05-18T02:17:09.484Z,35.41
2023-05-18T02:18:09.504Z,35.41
2023-05-18T02:19:09.551Z,35.42
2023-05-18T02:20:09.526Z,35.41
2023-05-18T02:21:09.521Z,35.40
2023-05-18T02:22:09.584Z,35.40
2023-05-18T02:23:09.547Z,35.42
2023-05-18T02:24:09.540Z,35.40
2023-05-18T02:25:09.543Z,35.42
2023-05-18T02:26:09.549Z,35.41
2023-05-18T02:27:09.553Z,35.41
2023-05-18T02:28:09.563Z,35.40
2023-05-18T02:29:09.570Z,35.41
2023-05-18T02:30:09.565Z,35.42
2023-05-18T02:31:09.579Z,35.40
2023-05-18T02:32:09.623Z,35.42
2023-05-18T02:33:09.610Z,35.43
2023-05-18T02:34:09.585Z,35.42
2023-05-18T02:35:09.628Z,35.42
2023-05-18T02:36:09.601Z,35.40
2023-05-18T02:37:09.571Z,35.41
2023-05-18T02:38:09.588Z,35.42
2023-05-18T02:39:09.708Z,35.41
2023-05-18T02:40:09.650Z,35.42
2023-05-18T02:41:09.592Z,35.41
2023-05-18T02:42:09.625Z,35.41
2023-05-18T02:43:09.623Z,35.45
2023-05-18T02:44:09.636Z,35.43
2023-05-18T02:45:10.090Z,35.44
2023-05-18T02:46:09.672Z,35.43
2023-05-18T02:47:09.654Z,35.44
2023-05-18T02:48:09.719Z,35.43
2023-05-18T02:49:09.655Z,35.43
2023-05-18T02:50:09.693Z,35.43
2023-05-18T02:51:09.677Z,35.43
2023-05-18T02:52:09.656Z,35.45
2023-05-18T02:53:09.685Z,35.44
2023-05-18T02:54:09.658Z,35.44
2023-05-18T02:55:09.769Z,35.43
2023-05-18T02:56:09.718Z,35.43
2023-05-18T02:57:09.699Z,35.45
2023-05-18T02:58:09.698Z,35.44
2023-05-18T02:59:09.728Z,35.46
2023-05-18T03:00:09.712Z,35.44
2023-05-18T03:01:09.737Z,35.44
2023-05-18T03:02:09.762Z,35.44
2023-05-18T03:03:09.928Z,35.45
2023-05-18T03:04:09.722Z,35.47
2023-05-18T03:05:10.117Z,35.44
2023-05-18T03:06:09.806Z,35.45
2023-05-18T03:07:09.776Z,35.43
2023-05-18T03:08:09.827Z,35.43
2023-05-18T03:09:09.799Z,35.47
2023-05-18T03:10:10.129Z,35.44
2023-05-18T03:11:09.850Z,35.43
2023-05-18T03:12:09.851Z,35.44
2023-05-18T03:13:09.841Z,35.45
2023-05-18T03:14:09.834Z,35.46
2023-05-18T03:15:09.854Z,35.44
2023-05-18T03:16:09.877Z,35.44
2023-05-18T03:17:09.893Z,35.46
2023-05-18T03:18:09.852Z,35.46
2023-05-18T03:19:09.895Z,35.45
2023-05-18T03:20:09.893Z,35.45
2023-05-18T03:21:09.921Z,35.44
2023-05-18T03:22:09.931Z,35.44
2023-05-18T03:23:09.901Z,35.46
2023-05-18T03:24:09.911Z,35.45
2023-05-18T03:25:09.964Z,35.46
2023-05-18T03:26:09.964Z,35.47
2023-05-18T03:27:09.928Z,35.45
2023-05-18T03:28:09.981Z,35.44
2023-05-18T03:29:09.982Z,35.47
2023-05-18T03:30:09.991Z,35.49
2023-05-18T03:31:10.073Z,35.46
2023-05-18T03:32:10.015Z,35.45
2023-05-18T03:33:10.078Z,35.44
2023-05-18T03:34:09.974Z,35.46
2023-05-18T03:35:10.015Z,35.46
2023-05-18T03:36:10.035Z,35.45
2023-05-18T03:37:10.050Z,35.45
2023-05-18T03:38:10.055Z,35.45
2023-05-18T03:39:10.058Z,35.46
2023-05-18T03:40:10.063Z,35.46
2023-05-18T03:41:10.076Z,35.45
2023-05-18T03:42:10.090Z,35.46
2023-05-18T03:43:10.084Z,35.48
2023-05-18T03:44:10.086Z,35.46
2023-05-18T03:45:10.094Z,35.46
2023-05-18T03:46:10.186Z,35.46
2023-05-18T03:47:10.120Z,35.47
2023-05-18T03:48:10.234Z,35.47
2023-05-18T03:49:10.190Z,35.49
2023-05-18T03:50:10.171Z,35.46
2023-05-18T03:51:10.188Z,35.49
2023-05-18T03:52:10.238Z,35.46
2023-05-18T03:53:10.221Z,35.48
2023-05-18T03:54:10.217Z,35.46
2023-05-18T03:55:10.250Z,35.47
2023-05-18T03:56:10.258Z,35.46
2023-05-18T03:57:10.284Z,35.47
2023-05-18T03:58:10.290Z,35.47
2023-05-18T03:59:10.356Z,35.47
2023-05-18T04:00:10.656Z,35.47
2023-05-18T04:01:10.339Z,35.48
2023-05-18T04:02:10.387Z,35.48
2023-05-18T04:03:10.508Z,35.49
2023-05-18T04:04:10.503Z,35.47
2023-05-18T04:05:10.673Z,35.46
2023-05-18T04:06:10.490Z,35.47
2023-05-18T04:07:10.504Z,35.49
2023-05-18T04:08:10.517Z,35.50
2023-05-18T04:09:10.517Z,35.49
2023-05-18T04:10:10.688Z,35.47
2023-05-18T04:11:10.518Z,35.49
2023-05-18T04:12:10.552Z,35.50
2023-05-18T04:13:10.559Z,35.50
2023-05-18T04:14:10.540Z,35.47
2023-05-18T04:15:10.651Z,35.49
2023-05-18T04:16:10.581Z,35.49
2023-05-18T04:17:10.598Z,35.48
2023-05-18T04:18:10.674Z,35.49
2023-05-18T04:19:10.666Z,35.48
2023-05-18T04:20:10.646Z,35.49
2023-05-18T04:21:10.627Z,35.50
2023-05-18T04:22:10.664Z,35.48
2023-05-18T04:23:11.579Z,35.48
2023-05-18T04:24:10.673Z,35.51
2023-05-18T04:25:11.163Z,35.51
2023-05-18T04:26:10.692Z,35.49
2023-05-18T04:27:10.690Z,35.51
2023-05-18T04:28:10.704Z,35.50
2023-05-18T04:29:10.744Z,35.49
2023-05-18T04:30:11.147Z,35.48
2023-05-18T04:31:10.781Z,35.49
2023-05-18T04:32:10.887Z,35.50
2023-05-18T04:33:10.844Z,35.47
2023-05-18T04:34:10.781Z,35.51
2023-05-18T04:35:11.163Z,35.49
2023-05-18T04:36:10.858Z,35.50
2023-05-18T04:37:10.872Z,35.50
2023-05-18T04:38:10.871Z,35.48
2023-05-18T04:39:10.909Z,35.51
2023-05-18T04:40:10.925Z,35.51
2023-05-18T04:41:10.925Z,35.50
2023-05-18T04:42:10.940Z,35.49
2023-05-18T04:43:11.001Z,35.50
2023-05-18T04:44:10.979Z,35.50
2023-05-18T04:45:10.975Z,35.52
2023-05-18T04:46:10.997Z,35.50
2023-05-18T04:47:11.040Z,35.51
2023-05-18T04:48:11.088Z,35.52
2023-05-18T04:49:11.056Z,35.50
2023-05-18T04:50:11.083Z,35.50
2023-05-18T04:51:11.116Z,35.54
2023-05-18T04:52:11.067Z,35.51
2023-05-18T04:53:11.202Z,35.46
2023-05-18T04:54:11.131Z,35.44
2023-05-18T04:55:11.115Z,35.44
2023-05-18T04:56:11.141Z,35.42
2023-05-18T04:57:11.152Z,35.41
2023-05-18T04:58:11.191Z,35.37
2023-05-18T04:59:11.237Z,35.38
2023-05-18T05:00:11.674Z,35.36
2023-05-18T05:01:11.260Z,35.37
2023-05-18T05:02:11.327Z,35.38
2023-05-18T05:03:11.445Z,35.37
2023-05-18T05:04:11.365Z,35.39
2023-05-18T05:05:11.673Z,35.41
2023-05-18T05:06:11.408Z,35.43
2023-05-18T05:07:11.441Z,35.41
2023-05-18T05:08:11.496Z,35.41
2023-05-18T05:09:11.511Z,35.40
2023-05-18T05:10:11.711Z,35.42
2023-05-18T05:11:11.562Z,35.44
2023-05-18T05:12:11.622Z,35.42
2023-05-18T05:13:11.665Z,35.43
2023-05-18T05:14:11.702Z,35.47
2023-05-18T05:15:11.735Z,35.44
2023-05-18T05:16:11.823Z,35.44
2023-05-18T05:17:11.831Z,35.45
2023-05-18T05:18:11.914Z,35.44
2023-05-18T05:19:11.957Z,35.46
2023-05-18T05:20:12.195Z,35.45
2023-05-18T05:21:11.999Z,35.46
2023-05-18T05:22:12.032Z,35.43
2023-05-18T05:23:12.160Z,35.43
2023-05-18T05:24:12.100Z,35.43
2023-05-18T05:25:12.663Z,35.45
2023-05-18T05:26:12.198Z,35.43
2023-05-18T05:27:12.245Z,35.42
2023-05-18T05:28:12.350Z,35.43
2023-05-18T05:29:12.317Z,35.42
2023-05-18T05:30:12.388Z,35.42
2023-05-18T05:31:12.453Z,35.40
2023-05-18T05:32:12.473Z,35.44
2023-05-18T05:33:12.548Z,35.41
2023-05-18T05:34:12.552Z,35.42
2023-05-18T05:35:12.613Z,35.41
2023-05-18T05:36:12.648Z,35.40
2023-05-18T05:37:12.674Z,35.40
2023-05-18T05:38:12.699Z,35.41
2023-05-18T05:39:12.734Z,35.40
2023-05-18T05:40:12.769Z,35.40
2023-05-18T05:41:12.791Z,35.40
2023-05-18T05:42:12.861Z,35.39
2023-05-18T05:43:12.907Z,35.40
2023-05-18T05:44:12.901Z,35.35
2023-05-18T05:45:12.937Z,35.37
2023-05-18T05:46:12.977Z,35.38
2023-05-18T05:47:13.013Z,35.38
2023-05-18T05:48:13.971Z,35.37
2023-05-18T05:49:13.117Z,35.38
2023-05-18T05:50:13.229Z,35.35
2023-05-18T05:51:13.141Z,35.34
2023-05-18T05:52:13.176Z,35.38
2023-05-18T05:53:13.204Z,35.35
2023-05-18T05:54:13.241Z,35.36
2023-05-18T05:55:13.278Z,35.37
2023-05-18T05:56:13.328Z,35.34
2023-05-18T05:57:13.315Z,35.33
2023-05-18T05:58:13.372Z,35.35
2023-05-18T05:59:13.428Z,35.33
2023-05-18T06:00:13.694Z,35.35
2023-05-18T06:01:13.502Z,35.33
2023-05-18T06:02:13.522Z,35.32
2023-05-18T06:03:13.612Z,35.32
2023-05-18T06:04:13.644Z,35.31
2023-05-18T06:05:13.689Z,35.32
2023-05-18T06:06:13.605Z,35.32
2023-05-18T06:07:13.645Z,35.31
2023-05-18T06:08:13.700Z,35.30
2023-05-18T06:09:13.704Z,35.29
2023-05-18T06:10:14.176Z,35.30
2023-05-18T06:11:13.775Z,35.29
2023-05-18T06:12:13.805Z,35.28
2023-05-18T06:13:13.856Z,35.28
2023-05-18T06:14:13.868Z,35.29
2023-05-18T06:15:14.210Z,35.28
2023-05-18T06:16:13.979Z,35.28
2023-05-18T06:17:14.002Z,35.27
2023-05-18T06:18:14.089Z,35.28
2023-05-18T06:19:14.085Z,35.26
2023-05-18T06:20:14.201Z,35.25
2023-05-18T06:21:14.153Z,35.26
2023-05-18T06:22:14.160Z,35.24
2023-05-18T06:23:14.196Z,35.24
2023-05-18T06:24:14.230Z,35.26
2023-05-18T06:25:14.684Z,35.22
2023-05-18T06:26:14.275Z,35.22
2023-05-18T06:27:14.330Z,35.24
2023-05-18T06:28:14.354Z,35.25
2023-05-18T06:29:14.418Z,35.23
2023-05-18T06:30:14.724Z,35.23
2023-05-18T06:31:14.468Z,35.24
2023-05-18T06:32:14.590Z,35.21
2023-05-18T06:33:14.621Z,35.24
2023-05-18T06:34:14.562Z,35.22
2023-05-18T06:35:14.691Z,35.23
2023-05-18T06:36:14.558Z,35.20
2023-05-18T06:37:14.603Z,35.22
2023-05-18T06:38:14.635Z,35.22
2023-05-18T06:39:14.700Z,35.23
2023-05-18T06:40:15.215Z,35.22
2023-05-18T06:41:14.775Z,35.22
2023-05-18T06:42:14.772Z,35.23
2023-05-18T06:43:14.828Z,35.20
2023-05-18T06:44:14.869Z,35.22
2023-05-18T06:45:15.248Z,35.20
2023-05-18T06:46:14.957Z,35.23
2023-05-18T06:47:14.956Z,35.23
2023-05-18T06:48:14.960Z,35.19
2023-05-18T06:49:15.002Z,35.18
2023-05-18T06:50:15.213Z,35.18
2023-05-18T06:51:15.080Z,35.17
2023-05-18T06:52:15.129Z,35.18
2023-05-18T06:53:15.142Z,35.20
2023-05-18T06:54:15.190Z,35.17
2023-05-18T06:55:15.289Z,35.18
2023-05-18T06:56:15.329Z,35.18
2023-05-18T06:57:15.309Z,35.17
2023-05-18T06:58:15.346Z,35.18
2023-05-18T06:59:15.372Z,35.17
2023-05-18T07:00:15.772Z,35.16
2023-05-18T07:01:15.496Z,35.17
2023-05-18T07:02:15.488Z,35.14
2023-05-18T07:03:15.610Z,35.16
2023-05-18T07:04:15.665Z,35.14
2023-05-18T07:05:15.715Z,35.14
2023-05-18T07:06:15.614Z,35.14
2023-05-18T07:07:15.639Z,35.13
2023-05-18T07:08:15.680Z,35.13
2023-05-18T07:09:15.663Z,35.13
2023-05-18T07:10:16.230Z,35.10
2023-05-18T07:11:15.854Z,35.11
2023-05-18T07:12:15.783Z,35.09
2023-05-18T07:13:15.884Z,35.10
2023-05-18T07:14:15.861Z,35.10
2023-05-18T07:15:16.215Z,35.10
2023-05-18T07:16:15.912Z,35.09
2023-05-18T07:17:15.936Z,35.10
2023-05-18T07:18:15.970Z,35.09
2023-05-18T07:19:16.047Z,35.09
2023-05-18T07:20:16.250Z,35.07
2023-05-18T07:21:16.065Z,35.07
2023-05-18T07:22:16.066Z,35.08
2023-05-18T07:23:16.123Z,35.08
2023-05-18T07:24:16.129Z,35.09
2023-05-18T07:25:16.190Z,35.06
2023-05-18T07:26:16.191Z,35.07
2023-05-18T07:27:16.202Z,35.07
2023-05-18T07:28:16.222Z,35.05
2023-05-18T07:29:16.271Z,35.05
2023-05-18T07:30:16.722Z,35.06
2023-05-18T07:31:16.362Z,35.05
2023-05-18T07:32:16.390Z,35.04
2023-05-18T07:33:16.413Z,35.04
2023-05-18T07:34:16.474Z,35.01
2023-05-18T07:35:16.724Z,35.03
2023-05-18T07:36:16.453Z,35.05
2023-05-18T07:37:16.482Z,35.04
2023-05-18T07:38:16.505Z,35.06
2023-05-18T07:39:18.553Z,35.02
2023-05-18T07:40:16.743Z,35.03
2023-05-18T07:41:16.538Z,35.04
2023-05-18T07:42:16.535Z,35.02
2023-05-18T07:43:16.515Z,34.99
2023-05-18T07:44:16.508Z,35.00
2023-05-18T07:45:16.714Z,35.00
2023-05-18T07:46:16.521Z,35.00
2023-05-18T07:47:16.476Z,34.98
2023-05-18T07:48:16.485Z,34.97
2023-05-18T07:49:16.469Z,34.97
2023-05-18T07:50:16.716Z,34.98
2023-05-18T07:51:16.462Z,34.98
2023-05-18T07:52:16.435Z,34.97
2023-05-18T07:53:16.427Z,34.94
2023-05-18T07:54:16.447Z,34.96
2023-05-18T07:55:16.722Z,34.96
2023-05-18T07:56:16.394Z,34.96
2023-05-18T07:57:16.395Z,34.96
2023-05-18T07:58:16.375Z,34.92
2023-05-18T07:59:16.404Z,34.91
2023-05-18T08:00:16.399Z,34.90
2023-05-18T08:01:16.369Z,34.90
2023-05-18T08:02:16.367Z,34.88
2023-05-18T08:03:16.425Z,34.87
2023-05-18T08:04:16.403Z,34.86
2023-05-18T08:05:16.354Z,34.87
2023-05-18T08:06:16.341Z,34.83
2023-05-18T08:07:16.337Z,34.83
2023-05-18T08:08:16.325Z,34.80
2023-05-18T08:09:16.312Z,34.82
2023-05-18T08:10:16.304Z,34.82
2023-05-18T08:11:16.312Z,34.80
2023-05-18T08:12:16.277Z,34.78
2023-05-18T08:13:16.268Z,34.77
2023-05-18T08:14:16.282Z,34.76
2023-05-18T08:15:16.284Z,34.75
2023-05-18T08:16:16.304Z,34.76
2023-05-18T08:17:16.243Z,34.75
2023-05-18T08:18:16.297Z,34.73
2023-05-18T08:19:16.305Z,34.71
2023-05-18T08:20:16.214Z,34.71
2023-05-18T08:21:16.250Z,34.69
2023-05-18T08:22:16.194Z,34.69
2023-05-18T08:23:16.188Z,34.67
2023-05-18T08:24:16.190Z,34.64
2023-05-18T08:25:16.207Z,34.66
2023-05-18T08:26:16.162Z,34.65
2023-05-18T08:27:16.149Z,34.64
2023-05-18T08:28:16.174Z,34.65
2023-05-18T08:29:16.158Z,34.63
2023-05-18T08:30:16.170Z,34.62
2023-05-18T08:31:16.204Z,34.62
2023-05-18T08:32:16.248Z,34.63
2023-05-18T08:33:16.188Z,34.61
2023-05-18T08:34:16.163Z,34.60
2023-05-18T08:35:16.169Z,34.60
2023-05-18T08:36:16.108Z,34.56
2023-05-18T08:37:16.116Z,34.58
2023-05-18T08:38:16.086Z,34.54
2023-05-18T08:39:16.077Z,34.54
2023-05-18T08:40:16.091Z,34.56
2023-05-18T08:41:16.131Z,34.56
2023-05-18T08:42:16.036Z,34.54
2023-05-18T08:43:16.047Z,34.54
2023-05-18T08:44:16.050Z,34.52
2023-05-18T08:45:16.046Z,34.52
2023-05-18T08:46:16.043Z,34.53
2023-05-18T08:47:15.999Z,34.49
2023-05-18T08:48:16.180Z,34.47
2023-05-18T08:49:16.040Z,34.47
2023-05-18T08:50:16.259Z,34.47
2023-05-18T08:51:16.094Z,34.45
2023-05-18T08:52:16.140Z,34.46
2023-05-18T08:53:16.221Z,34.45
2023-05-18T08:54:16.191Z,34.45
2023-05-18T08:55:16.210Z,34.45
2023-05-18T08:56:16.251Z,34.44
2023-05-18T08:57:16.227Z,34.44
2023-05-18T08:58:16.203Z,34.42
2023-05-18T08:59:16.267Z,34.43
2023-05-18T09:00:16.287Z,34.43
2023-05-18T09:01:16.363Z,34.42
2023-05-18T09:02:16.308Z,34.41
2023-05-18T09:03:16.387Z,34.40
2023-05-18T09:04:16.333Z,34.42
2023-05-18T09:05:16.425Z,34.45
2023-05-18T09:06:16.374Z,34.41
2023-05-18T09:07:16.405Z,34.40
2023-05-18T09:08:16.420Z,34.41
2023-05-18T09:09:16.427Z,34.41
2023-05-18T09:10:16.486Z,34.39
2023-05-18T09:11:16.463Z,34.38
2023-05-18T09:12:16.483Z,34.34
2023-05-18T09:13:16.500Z,34.33
2023-05-18T09:14:16.555Z,34.36
2023-05-18T09:15:16.524Z,34.33
2023-05-18T09:16:16.573Z,34.34
2023-05-18T09:17:16.582Z,34.32
2023-05-18T09:18:16.643Z,34.32
2023-05-18T09:19:16.683Z,34.35
2023-05-18T09:20:16.772Z,34.34
2023-05-18T09:21:16.655Z,34.36
2023-05-18T09:22:16.700Z,34.33
2023-05-18T09:23:16.700Z,34.32
2023-05-18T09:24:16.738Z,34.32
2023-05-18T09:25:16.741Z,34.31
2023-05-18T09:26:16.777Z,34.31
2023-05-18T09:27:16.822Z,34.28
2023-05-18T09:28:16.838Z,34.26
2023-05-18T09:29:16.877Z,34.26
2023-05-18T09:30:17.255Z,34.23
2023-05-18T09:31:16.942Z,34.26
2023-05-18T09:32:16.921Z,34.26
2023-05-18T09:33:17.053Z,34.24
2023-05-18T09:34:16.979Z,34.22
2023-05-18T09:35:17.259Z,34.22
2023-05-18T09:36:17.052Z,34.11
2023-05-18T09:37:17.058Z,34.14
2023-05-18T09:38:17.089Z,34.17
2023-05-18T09:39:17.102Z,34.18
2023-05-18T09:40:17.152Z,34.15
2023-05-18T09:41:17.236Z,34.16
2023-05-18T09:42:17.165Z,34.13
2023-05-18T09:43:17.200Z,34.13
2023-05-18T09:44:17.220Z,34.13
2023-05-18T09:45:17.279Z,34.13
2023-05-18T09:46:17.295Z,34.12
2023-05-18T09:47:17.274Z,34.12
2023-05-18T09:48:17.306Z,34.12
2023-05-18T09:49:17.346Z,34.10
2023-05-18T09:50:17.399Z,34.09
2023-05-18T09:51:17.422Z,34.03
2023-05-18T09:52:17.448Z,34.06
2023-05-18T09:53:17.421Z,34.02
2023-05-18T09:54:17.490Z,34.04
2023-05-18T09:55:17.489Z,34.04
2023-05-18T09:56:17.515Z,34.00
2023-05-18T09:57:17.512Z,34.04
2023-05-18T09:58:17.559Z,34.04
2023-05-18T09:59:17.552Z,34.03
2023-05-18T10:00:17.810Z,34.04
2023-05-18T10:01:17.637Z,34.03
2023-05-18T10:02:17.613Z,34.02
2023-05-18T10:03:17.668Z,34.06
2023-05-18T10:04:17.727Z,34.04
2023-05-18T10:05:17.707Z,34.04
2023-05-18T10:06:17.765Z,34.04
2023-05-18T10:07:17.813Z,34.05
2023-05-18T10:08:17.784Z,34.03
2023-05-18T10:09:17.867Z,34.01
2023-05-18T10:10:17.855Z,34.02
2023-05-18T10:11:17.879Z,34.06
2023-05-18T10:12:17.899Z,34.05
2023-05-18T10:13:17.938Z,34.07
2023-05-18T10:14:17.944Z,34.06
2023-05-18T10:15:17.951Z,34.06
2023-05-18T10:16:18.009Z,34.02
2023-05-18T10:17:18.160Z,34.04
2023-05-18T10:18:18.123Z,34.04
2023-05-18T10:19:18.094Z,34.10
2023-05-18T10:20:18.392Z,34.07
2023-05-18T10:21:18.133Z,34.06
2023-05-18T10:22:18.165Z,34.05
2023-05-18T10:23:18.195Z,34.07
2023-05-18T10:24:18.792Z,34.00
2023-05-18T10:25:18.280Z,34.05
2023-05-18T10:26:18.263Z,34.06
2023-05-18T10:27:18.303Z,34.04
2023-05-18T10:28:18.310Z,34.02
2023-05-18T10:29:18.360Z,34.06
2023-05-18T10:30:18.416Z,34.06
2023-05-18T10:31:18.424Z,34.05
2023-05-18T10:32:18.417Z,34.05
2023-05-18T10:33:28.554Z,34.04
2023-05-18T10:34:19.446Z,34.08
2023-05-18T10:35:18.419Z,34.02
2023-05-18T10:36:18.431Z,34.03
2023-05-18T10:37:18.421Z,34.07
2023-05-18T10:38:18.413Z,34.06
2023-05-18T10:39:18.431Z,34.09
2023-05-18T10:40:18.525Z,33.99
2023-05-18T10:41:18.401Z,34.04
2023-05-18T10:42:18.410Z,33.96
2023-05-18T10:43:19.897Z,34.00
2023-05-18T10:44:18.399Z,34.00
2023-05-18T10:45:18.354Z,33.96
2023-05-18T10:46:18.452Z,33.95
2023-05-18T10:47:18.471Z,33.98
2023-05-18T10:48:18.447Z,33.94
2023-05-18T10:49:18.441Z,33.94
2023-05-18T10:50:18.463Z,33.94
2023-05-18T10:51:19.249Z,33.95
2023-05-18T10:52:18.480Z,33.94
2023-05-18T10:53:18.473Z,33.94
2023-05-18T10:54:18.528Z,33.92
2023-05-18T10:55:18.563Z,33.94
2023-05-18T10:56:18.540Z,33.87
2023-05-18T10:57:18.583Z,33.89
2023-05-18T10:58:18.601Z,33.84
2023-05-18T10:59:18.587Z,33.84
2023-05-18T11:00:18.801Z,33.86
2023-05-18T11:01:18.682Z,33.76
2023-05-18T11:02:18.686Z,33.81
2023-05-18T11:03:18.731Z,33.73
2023-05-18T11:04:18.728Z,33.75
2023-05-18T11:05:18.820Z,33.75
2023-05-18T11:06:18.780Z,33.62
2023-05-18T11:07:18.761Z,33.68
2023-05-18T11:08:18.825Z,33.63
2023-05-18T11:09:18.838Z,33.59
2023-05-18T11:10:19.273Z,33.66
2023-05-18T11:11:19.785Z,33.68
2023-05-18T11:12:18.896Z,33.68
2023-05-18T11:13:18.887Z,33.69
2023-05-18T11:14:18.886Z,33.72
2023-05-18T11:15:19.300Z,33.69
2023-05-18T11:16:19.016Z,33.68
2023-05-18T11:17:18.955Z,33.68
2023-05-18T11:18:19.023Z,33.64
2023-05-18T11:19:19.056Z,33.61
2023-05-18T11:20:19.321Z,33.66
2023-05-18T11:21:19.019Z,33.46
2023-05-18T11:22:19.058Z,33.47
2023-05-18T11:23:19.079Z,33.52
2023-05-18T11:24:19.100Z,33.53
2023-05-18T11:25:19.321Z,33.54
2023-05-18T11:26:19.114Z,33.53
2023-05-18T11:27:19.128Z,33.54
2023-05-18T11:28:19.147Z,33.54
2023-05-18T11:29:19.272Z,33.50
2023-05-18T11:30:19.184Z,33.49
2023-05-18T11:31:19.237Z,33.46
2023-05-18T11:32:22.723Z,33.43
2023-05-18T11:33:20.276Z,33.45
2023-05-18T11:34:19.209Z,33.30
2023-05-18T11:35:19.218Z,33.33
2023-05-18T11:36:19.206Z,33.30
2023-05-18T11:37:19.215Z,33.28
2023-05-18T11:38:19.213Z,33.29
2023-05-18T11:39:19.210Z,33.29
2023-05-18T11:40:19.192Z,33.31
2023-05-18T11:41:19.187Z,33.25
2023-05-18T11:42:19.167Z,33.23
2023-05-18T11:43:19.176Z,33.24
2023-05-18T11:44:19.152Z,33.21
2023-05-18T11:45:19.156Z,33.21
2023-05-18T11:46:19.130Z,33.20
2023-05-18T11:47:19.142Z,33.15
2023-05-18T11:48:19.222Z,33.18
2023-05-18T11:49:19.124Z,33.17
2023-05-18T11:50:19.097Z,33.17
2023-05-18T11:51:19.085Z,33.13
2023-05-18T11:52:19.105Z,33.13
2023-05-18T11:53:19.078Z,33.15
2023-05-18T11:54:19.082Z,33.12
2023-05-18T11:55:19.150Z,33.11
2023-05-18T11:56:19.061Z,33.12
2023-05-18T11:57:19.045Z,33.10
2023-05-18T11:58:19.076Z,33.12
2023-05-18T11:59:19.060Z,33.08
2023-05-18T12:00:19.070Z,33.07
2023-05-18T12:01:19.112Z,33.05
2023-05-18T12:02:19.127Z,33.02
2023-05-18T12:03:19.197Z,33.06
2023-05-18T12:04:19.264Z,33.04
2023-05-18T12:05:19.185Z,33.03
2023-05-18T12:06:19.189Z,32.93
2023-05-18T12:07:19.186Z,32.89
2023-05-18T12:08:19.216Z,32.94
2023-05-18T12:09:19.213Z,32.90
2023-05-18T12:10:19.211Z,32.84
2023-05-18T12:11:19.264Z,32.67
2023-05-18T12:12:19.280Z,32.88
2023-05-18T12:13:19.279Z,32.87
2023-05-18T12:14:19.284Z,32.89
2023-05-18T12:15:19.362Z,32.91
2023-05-18T12:16:19.363Z,32.80
2023-05-18T12:17:19.305Z,32.76
2023-05-18T12:18:19.409Z,32.81
2023-05-18T12:19:19.409Z,32.74
2023-05-18T12:20:19.350Z,32.72
2023-05-18T12:21:20.777Z,32.83
2023-05-18T12:22:19.586Z,32.71
2023-05-18T12:23:19.597Z,32.76
2023-05-18T12:24:19.594Z,32.77
2023-05-18T12:25:19.664Z,32.53
2023-05-18T12:26:19.638Z,32.62
2023-05-18T12:27:19.658Z,32.55
2023-05-18T12:28:19.698Z,32.69
2023-05-18T12:29:19.726Z,32.55
2023-05-18T12:30:19.733Z,32.65
2023-05-18T12:31:19.853Z,32.69
2023-05-18T12:32:19.774Z,32.63
2023-05-18T12:33:19.787Z,32.59
2023-05-18T12:34:19.803Z,32.48
2023-05-18T12:35:19.810Z,32.54
2023-05-18T12:36:19.868Z,32.57
2023-05-18T12:37:20.914Z,32.58
2023-05-18T12:38:19.866Z,32.58
2023-05-18T12:39:19.873Z,32.57
2023-05-18T12:40:19.894Z,32.61
2023-05-18T12:41:19.921Z,32.52
2023-05-18T12:42:19.927Z,32.43
2023-05-18T12:43:19.946Z,32.54
2023-05-18T12:44:19.932Z,32.37
2023-05-18T12:45:19.952Z,32.52
2023-05-18T12:46:20.348Z,32.55
2023-05-18T12:47:20.088Z,32.46
2023-05-18T12:48:20.074Z,32.48
2023-05-18T12:49:19.990Z,32.54
2023-05-18T12:50:20.029Z,32.61
2023-05-18T12:51:20.010Z,32.46
2023-05-18T12:52:20.069Z,32.52